Track Галахова Екатерина

Time Latitude Longitude Accuracy (66% radius in meters) Altitude (meters) Speed (km/hour) Bearing (degrees) Battery (%) GPS flag
07:05:15 57.203691 60.118994 3 327 0 0 84 1 delete
07:05:05 57.203685 60.118992 3 327 0 0 84 1 delete
07:04:55 57.203688 60.119007 3 327 0 0 84 1 delete
07:04:44 57.203704 60.119055 3 327 0 0 84 1 delete
07:04:34 57.203707 60.119062 3 328 0 0 84 1 delete
07:04:24 57.203707 60.119055 3 327 1.3999999761581 130.5 84 1 delete
07:04:14 57.203715 60.119036 3 326 0 0 84 1 delete
07:04:03 57.203715 60.119036 3 327 0 0 84 1 delete
07:03:53 57.203716 60.119037 3 327 0 0 84 1 delete
07:03:42 57.203716 60.119037 3 325 0 0 84 1 delete
07:03:32 57.203716 60.119037 3 327 0 0 84 1 delete
07:03:22 57.203716 60.119037 3 327 0 0 84 1 delete
07:03:11 57.203716 60.119037 4 327 0 0 84 1 delete
07:03:01 57.203716 60.119037 3 327 0 0 84 1 delete
07:02:50 57.203717 60.119037 3 327 0 0 84 1 delete
07:02:40 57.203717 60.119036 3 327 0 0 84 1 delete
07:02:30 57.203717 60.119036 3 327 0 0 84 1 delete
07:02:19 57.203717 60.119035 3 328 0 0 84 1 delete
07:02:09 57.203719 60.119031 3 328 0 0 84 1 delete
07:01:58 57.203730 60.119010 3 327 0 0 84 1 delete
07:01:48 57.203730 60.119010 4 328 0 0 84 1 delete
07:01:36 57.203730 60.119011 4 328 0 0 84 1 delete
07:01:26 57.203731 60.119013 4 327 0 0 84 1 delete
07:01:16 57.203733 60.119016 4 327 0 0 84 1 delete
07:01:05 57.203734 60.119016 4 327 0 0 84 1 delete
07:00:55 57.203733 60.119003 4 327 0 0 84 1 delete
07:00:49 57.203729 60.118963 3 326 0 0 84 1 delete
07:00:44 57.203744 60.118827 3 326 2.2400000095367 133.60000610352 84 1 delete
07:00:43 57.203759 60.118792 3 326 3.0099999904633 125.09999847412 84 1 delete
07:00:33 57.203803 60.118646 3 325 0 0 84 1 delete
07:00:25 57.203817 60.118631 3 325 1.3099999427795 146.30000305176 84 1 delete
07:00:23 57.203836 60.118575 3 324 1.8899999856949 109 84 1 delete
07:00:19 57.203868 60.118465 3 323 2.1600000858307 118.40000152588 84 1 delete
07:00:12 57.203921 60.118342 3 321 0 0 84 1 delete
07:00:01 57.203921 60.118342 4 321 0 0 84 1 delete
06:59:51 57.203922 60.118343 4 321 0 0 84 1 delete
06:59:40 57.203922 60.118343 4 321 0 0 84 1 delete
06:59:29 57.203922 60.118344 4 321 0 0 84 1 delete
06:59:19 57.203923 60.118346 3 321 0 0 84 1 delete
06:59:14 57.203930 60.118326 3 322 0 0 84 1 delete
06:59:08 57.203945 60.118273 3 324 0 0 84 1 delete
06:59:01 57.203982 60.118192 3 328 1.1200000047684 157.60000610352 84 1 delete
06:58:57 57.204010 60.118151 3 330 0.27000001072884 127.40000152588 84 1 delete
06:58:47 57.204012 60.118153 3 329 0 0 84 1 delete
06:58:36 57.204020 60.118142 3 331 0 0 84 1 delete
06:58:28 57.204062 60.118074 3 331 2.9400000572205 147.30000305176 84 1 delete
06:58:26 57.204097 60.118010 3 331 2.3599998950958 135.19999694824 84 1 delete
06:58:24 57.204129 60.117933 3 330 2.9800000190735 137.19999694824 84 1 delete
06:58:21 57.204206 60.117832 3 330 3.1300001144409 148.89999389648 84 1 delete
06:58:18 57.204285 60.117750 3 330 2.8299999237061 145.5 84 1 delete